createdAt,value
2022-10-03T06:56:53.136Z,13.18
2022-10-03T06:59:58.402Z,14.47
2022-10-03T07:02:45.851Z,9.88
2022-10-03T07:06:14.872Z,7.62
2022-10-03T07:09:31.340Z,9.68
2022-10-03T07:12:28.226Z,10.15
2022-10-03T07:16:26.174Z,9.03
2022-10-03T07:19:01.681Z,11.08
2022-10-03T07:25:19.890Z,12.23
2022-10-03T07:28:05.418Z,8.58
2022-10-03T07:30:49.718Z,7.97
2022-10-03T07:33:43.627Z,14.63
2022-10-03T07:37:04.712Z,7.97
2022-10-03T07:40:25.861Z,9.80
2022-10-03T07:43:27.178Z,9.88
2022-10-03T07:46:37.297Z,9.08
2022-10-03T07:49:28.137Z,8.03
2022-10-03T07:52:16.186Z,14.40
2022-10-03T07:55:38.197Z,11.15
2022-10-03T07:58:22.207Z,9.98
2022-10-03T08:01:22.903Z,10.78
2022-10-03T08:04:33.334Z,9.18
2022-10-03T08:07:19.133Z,7.95
2022-10-03T08:10:00.979Z,8.30
2022-10-03T08:16:02.370Z,8.20
2022-10-03T08:19:00.115Z,8.58
2022-10-03T08:21:38.861Z,10.10
2022-10-03T08:24:41.826Z,7.08
2022-10-03T08:27:22.869Z,8.20
2022-10-03T08:30:06.979Z,8.65
2022-10-03T08:36:45.458Z,11.08
2022-10-03T08:39:37.496Z,7.92
2022-10-03T08:42:21.116Z,7.80
2022-10-03T08:45:25.141Z,13.72
2022-10-03T08:49:02.690Z,11.53
2022-10-03T08:51:54.789Z,5.15
2022-10-03T08:54:48.756Z,9.50
2022-10-03T08:57:36.774Z,7.17
2022-10-03T09:00:19.536Z,11.03
2022-10-03T09:03:34.977Z,4.85
2022-10-03T09:06:52.742Z,4.25
2022-10-03T09:09:38.110Z,6.95
2022-10-03T09:12:24.203Z,5.80
2022-10-03T09:15:09.913Z,7.55
2022-10-03T09:18:01.704Z,7.25
2022-10-03T09:21:17.087Z,8.65
2022-10-03T09:27:06.134Z,5.20
2022-10-03T09:30:20.728Z,8.20
2022-10-03T09:33:38.320Z,8.28
2022-10-03T09:37:03.834Z,4.55
2022-10-03T09:40:19.144Z,5.17
2022-10-03T09:43:21.202Z,4.75
2022-10-03T09:46:33.831Z,6.83
2022-10-03T09:49:33.415Z,7.28
2022-10-03T09:52:22.595Z,5.87
2022-10-03T09:55:34.278Z,5.12
2022-10-03T09:58:25.233Z,5.97
2022-10-03T10:01:14.922Z,7.28
2022-10-03T10:04:32.643Z,8.43
2022-10-03T10:07:22.928Z,9.80
2022-10-03T10:10:18.489Z,5.00
2022-10-03T10:13:23.823Z,2.87
2022-10-03T10:16:37.256Z,6.00
2022-10-03T10:22:47.123Z,3.55
2022-10-03T10:26:28.660Z,5.28
2022-10-03T10:29:22.947Z,3.33
2022-10-03T10:32:36.219Z,3.75
2022-10-03T10:35:38.688Z,4.17
2022-10-03T10:38:38.453Z,3.95
2022-10-03T10:41:43.336Z,4.10
2022-10-03T10:48:29.133Z,5.75
2022-10-03T10:51:47.202Z,4.53
2022-10-03T10:55:06.371Z,5.58
2022-10-03T10:58:30.606Z,3.42
2022-10-03T11:05:07.306Z,3.60
2022-10-03T11:08:16.613Z,2.50
2022-10-03T11:11:01.900Z,2.67
2022-10-03T11:14:09.402Z,1.87
2022-10-03T11:19:55.722Z,5.37
2022-10-03T11:23:07.573Z,3.58
2022-10-03T11:26:25.495Z,5.42
2022-10-03T11:29:22.350Z,4.15
2022-10-03T11:32:27.833Z,4.47
2022-10-03T11:35:58.786Z,3.80
2022-10-03T11:41:17.002Z,3.92
2022-10-03T11:44:12.335Z,4.45
2022-10-03T11:47:40.958Z,3.37
2022-10-03T11:53:08.152Z,4.33
2022-10-03T11:55:44.479Z,3.12
2022-10-03T11:58:38.037Z,3.62
2022-10-03T12:01:21.664Z,6.45
2022-10-03T12:04:00.409Z,4.92
2022-10-03T12:07:17.692Z,4.42
2022-10-03T12:10:03.337Z,2.40
2022-10-03T12:12:43.435Z,2.80
2022-10-03T12:15:23.241Z,3.20
2022-10-03T12:18:01.553Z,1.82
2022-10-03T12:20:41.878Z,3.45
2022-10-03T12:23:21.995Z,2.37
2022-10-03T12:25:57.804Z,1.65
2022-10-03T12:28:35.419Z,2.08
2022-10-03T12:31:17.001Z,3.45
2022-10-03T12:33:52.739Z,3.52
2022-10-03T12:36:30.584Z,1.25
2022-10-03T12:41:53.978Z,2.02
2022-10-03T12:44:33.977Z,1.57
2022-10-03T12:47:15.644Z,2.35
2022-10-03T12:49:54.496Z,0.98
2022-10-03T12:52:30.624Z,2.12
2022-10-03T12:55:11.031Z,3.50
2022-10-03T12:57:56.387Z,1.45
2022-10-03T13:00:32.840Z,2.45
2022-10-03T13:03:23.802Z,2.15
2022-10-03T13:09:29.792Z,1.42
2022-10-03T13:12:08.032Z,0.65
2022-10-03T13:14:56.336Z,1.27
2022-10-03T13:17:34.769Z,0.88
2022-10-03T13:20:13.491Z,1.82
2022-10-03T13:22:50.010Z,2.30
2022-10-03T13:25:28.809Z,1.10
2022-10-03T13:28:05.385Z,1.22
2022-10-03T13:30:43.491Z,2.85
2022-10-03T13:33:19.809Z,1.85
2022-10-03T13:36:02.940Z,1.92
2022-10-03T13:41:59.829Z,4.00
2022-10-03T13:44:42.934Z,2.00
2022-10-03T13:47:32.571Z,1.20
2022-10-03T13:50:11.042Z,4.58
2022-10-03T13:52:47.220Z,2.10
2022-10-03T13:55:26.799Z,1.80
2022-10-03T13:58:25.260Z,1.17
2022-10-03T14:01:14.036Z,2.35
2022-10-03T14:06:51.433Z,0.80
2022-10-03T14:09:51.544Z,4.53
2022-10-03T14:15:19.230Z,1.27
2022-10-03T14:17:57.059Z,0.62
2022-10-03T14:20:34.680Z,22.27
2022-10-03T14:23:28.894Z,1.95
2022-10-03T14:26:05.880Z,1.02
2022-10-03T14:28:42.464Z,1.47
2022-10-03T14:31:19.179Z,1.62
2022-10-03T14:33:56.691Z,2.83
2022-10-03T14:36:37.191Z,1.40
2022-10-03T14:39:33.067Z,2.17
2022-10-03T14:42:19.128Z,1.67
2022-10-03T14:44:57.036Z,1.35
2022-10-03T14:47:36.031Z,3.92
2022-10-03T14:50:18.192Z,0.70
2022-10-03T14:52:54.893Z,1.87
2022-10-03T14:55:31.967Z,1.20
2022-10-03T14:58:11.522Z,2.12
2022-10-03T15:00:46.094Z,1.42
2022-10-03T15:03:33.149Z,3.92
2022-10-03T15:06:26.788Z,1.30
2022-10-03T15:09:02.876Z,1.92
2022-10-03T15:11:39.224Z,3.37
2022-10-03T15:14:13.561Z,3.00
2022-10-03T15:16:51.349Z,1.87
2022-10-03T15:22:16.382Z,1.62
2022-10-03T15:24:50.492Z,1.22
2022-10-03T15:27:28.361Z,1.42
2022-10-03T15:32:38.572Z,2.75
2022-10-03T15:35:20.115Z,1.17
2022-10-03T15:37:57.013Z,1.30
2022-10-03T15:40:38.258Z,1.30
2022-10-03T15:43:19.802Z,1.75
2022-10-03T15:45:54.046Z,2.27
2022-10-03T15:48:30.625Z,2.62
2022-10-03T15:51:08.518Z,2.37
2022-10-03T15:56:19.111Z,5.80
2022-10-03T15:58:55.393Z,4.03
2022-10-03T16:01:31.424Z,1.37
2022-10-03T16:04:07.968Z,2.15
2022-10-03T16:09:31.475Z,1.17
2022-10-03T16:12:13.379Z,1.82
2022-10-03T16:14:51.500Z,1.72
2022-10-03T16:17:28.209Z,1.20
2022-10-03T16:20:04.599Z,2.85
2022-10-03T16:22:40.643Z,1.27
2022-10-03T16:25:17.416Z,1.47
2022-10-03T16:27:55.728Z,2.50
2022-10-03T16:30:33.662Z,3.83
2022-10-03T16:35:44.491Z,1.30
2022-10-03T16:38:24.820Z,1.80
2022-10-03T16:41:01.874Z,1.00
2022-10-03T16:43:36.236Z,5.57
2022-10-03T16:46:14.546Z,1.40
2022-10-03T16:49:05.620Z,1.10
2022-10-03T16:51:43.235Z,1.70
2022-10-03T16:56:52.693Z,2.15
2022-10-03T16:59:28.302Z,1.20
2022-10-03T17:02:04.797Z,1.50
2022-10-03T17:04:41.188Z,1.87
2022-10-03T17:07:18.895Z,1.27
2022-10-03T17:09:53.824Z,1.20
2022-10-03T17:12:30.223Z,1.70
2022-10-03T17:15:08.963Z,1.12
2022-10-03T17:17:46.790Z,1.40
2022-10-03T17:20:24.018Z,2.08
2022-10-03T17:23:00.386Z,5.17
2022-10-03T17:25:39.648Z,1.60
2022-10-03T17:28:16.930Z,0.90
2022-10-03T17:30:53.270Z,3.05
2022-10-03T17:33:30.998Z,2.70
2022-10-03T17:36:09.004Z,2.62
2022-10-03T17:38:49.835Z,1.15
2022-10-03T17:41:24.909Z,2.58
2022-10-03T17:44:05.965Z,2.02
2022-10-03T17:46:45.382Z,1.70
2022-10-03T17:49:24.818Z,2.30
2022-10-03T17:51:59.188Z,2.37
2022-10-03T17:54:34.968Z,1.72
2022-10-03T17:57:11.964Z,1.70
2022-10-03T17:59:49.809Z,1.67
2022-10-03T18:02:26.593Z,1.35
2022-10-03T18:05:04.172Z,1.55
2022-10-03T18:07:38.627Z,2.10
2022-10-03T18:10:23.176Z,1.32
2022-10-03T18:13:00.109Z,2.50
2022-10-03T18:16:03.761Z,1.77
2022-10-03T18:19:07.360Z,3.02
2022-10-03T18:22:01.424Z,1.82
2022-10-03T18:24:47.806Z,1.72
2022-10-03T18:27:33.245Z,1.77
2022-10-03T18:30:10.020Z,2.87
2022-10-03T18:32:45.761Z,1.85
2022-10-03T18:35:23.512Z,1.92
2022-10-03T18:38:10.935Z,2.62
2022-10-03T18:40:49.561Z,3.77
2022-10-03T18:43:33.215Z,1.95
2022-10-03T18:46:13.353Z,2.83
2022-10-03T18:49:15.838Z,1.92
2022-10-03T18:51:33.500Z,2.12
2022-10-03T18:54:12.828Z,2.25
2022-10-03T18:56:47.486Z,1.55
2022-10-03T18:59:26.204Z,2.50
2022-10-03T19:02:02.143Z,4.12
2022-10-03T19:04:42.094Z,1.65
2022-10-03T19:07:20.657Z,3.98
2022-10-03T19:10:22.506Z,3.25
2022-10-03T19:12:58.848Z,2.60
2022-10-03T19:15:44.540Z,1.85
2022-10-03T19:18:26.402Z,2.67
2022-10-03T19:21:03.162Z,2.87
2022-10-03T19:23:40.623Z,1.90
2022-10-03T19:26:16.480Z,2.72
2022-10-03T19:28:51.208Z,2.25
2022-10-03T19:31:27.689Z,3.08
2022-10-03T19:34:04.112Z,1.90
2022-10-03T19:36:41.177Z,2.52
2022-10-03T19:39:18.243Z,2.47
2022-10-03T19:41:55.420Z,3.23
2022-10-03T19:44:30.058Z,2.67
2022-10-03T19:47:11.249Z,1.98
2022-10-03T19:50:02.453Z,5.03
2022-10-03T19:52:38.975Z,1.50
2022-10-03T19:55:17.865Z,2.62
2022-10-03T19:57:54.993Z,1.57
2022-10-03T20:00:31.952Z,2.30
2022-10-03T20:03:19.111Z,1.82
2022-10-03T20:06:16.968Z,2.47
2022-10-03T20:08:52.863Z,2.55
2022-10-03T20:11:34.204Z,3.95
2022-10-03T20:14:08.473Z,2.35
2022-10-03T20:16:47.047Z,12.23
2022-10-03T20:19:24.871Z,4.60
2022-10-03T20:27:23.495Z,1.77
2022-10-03T20:30:03.200Z,2.50
2022-10-03T20:32:39.506Z,2.10
2022-10-03T20:35:17.773Z,3.47
2022-10-03T20:37:55.261Z,3.83
2022-10-03T20:40:35.225Z,1.67
2022-10-03T20:43:28.481Z,4.15
2022-10-03T20:46:09.258Z,3.85
2022-10-03T20:48:45.671Z,2.85
2022-10-03T20:51:27.095Z,4.22
2022-10-03T20:54:00.515Z,3.58
2022-10-03T20:56:37.629Z,4.85
2022-10-03T20:59:13.953Z,2.47
2022-10-03T21:01:49.639Z,4.80
2022-10-03T21:04:26.005Z,4.00
2022-10-03T21:07:04.295Z,1.98
2022-10-03T21:09:46.314Z,2.98
2022-10-03T21:12:22.214Z,2.45
2022-10-03T21:14:59.567Z,3.50
2022-10-03T21:17:36.991Z,1.77
2022-10-03T21:22:56.932Z,1.75
2022-10-03T21:25:34.543Z,2.50
2022-10-03T21:28:10.249Z,1.98
2022-10-03T21:31:05.385Z,2.33
2022-10-03T21:33:41.930Z,2.20
2022-10-03T21:36:19.369Z,2.30
2022-10-03T21:38:55.482Z,6.28
2022-10-03T21:41:33.035Z,5.10
2022-10-03T21:44:09.228Z,2.37
2022-10-03T21:46:45.401Z,4.83
2022-10-03T21:49:32.416Z,3.25
2022-10-03T21:52:13.514Z,2.57
2022-10-03T21:54:53.567Z,4.05
2022-10-03T21:57:30.285Z,2.72
2022-10-03T22:00:12.993Z,3.30
2022-10-03T22:02:55.670Z,1.85
2022-10-03T22:05:35.532Z,3.17
2022-10-03T22:08:23.728Z,5.08
2022-10-03T22:11:03.451Z,5.53
2022-10-03T22:13:40.534Z,2.75
2022-10-03T22:16:18.193Z,3.27
2022-10-03T22:19:26.132Z,3.10
2022-10-03T22:22:15.981Z,2.75
2022-10-03T22:24:56.186Z,6.20
2022-10-03T22:27:32.607Z,3.30
2022-10-03T22:30:08.945Z,4.10
2022-10-03T22:32:46.157Z,2.42
2022-10-03T22:35:27.946Z,5.50
2022-10-03T22:38:01.345Z,5.12
2022-10-03T22:40:36.454Z,5.60
2022-10-03T22:43:11.965Z,2.92
2022-10-03T22:45:48.889Z,4.62
2022-10-03T22:48:25.603Z,4.92
2022-10-03T22:51:00.487Z,4.08
2022-10-03T22:53:36.258Z,2.75
2022-10-03T22:56:44.144Z,3.92
2022-10-03T22:59:22.645Z,2.72
2022-10-03T23:01:58.635Z,2.35
2022-10-03T23:04:35.566Z,3.05
2022-10-03T23:10:42.142Z,3.67
2022-10-03T23:13:20.095Z,3.35
2022-10-03T23:18:53.381Z,3.65
2022-10-03T23:21:27.113Z,6.08
2022-10-03T23:24:06.530Z,4.10
2022-10-03T23:27:23.260Z,3.12
2022-10-03T23:30:48.554Z,4.22
2022-10-03T23:33:40.912Z,4.00
2022-10-03T23:36:17.879Z,3.85
2022-10-03T23:39:02.186Z,3.77
2022-10-03T23:41:45.762Z,2.30
2022-10-03T23:44:42.026Z,6.20
2022-10-03T23:47:18.396Z,4.20
2022-10-03T23:49:53.993Z,4.55
2022-10-03T23:52:30.429Z,2.92
2022-10-03T23:55:07.148Z,4.95
2022-10-03T23:57:43.064Z,8.50
